sensor_id;sensor_type;location;lat;lon;timestamp;P1;durP1;ratioP1;P2;durP2;ratioP2
47804;SDS011;33568;45.286;9.900;2023-05-16T00:00:49;10.75;;;9.57;;
47804;SDS011;33568;45.286;9.900;2023-05-16T00:03:18;13.88;;;10.25;;
47804;SDS011;33568;45.286;9.900;2023-05-16T00:05:45;10.48;;;9.45;;
47804;SDS011;33568;45.286;9.900;2023-05-16T00:08:12;11.25;;;9.15;;
47804;SDS011;33568;45.286;9.900;2023-05-16T00:10:38;13.48;;;9.32;;
47804;SDS011;33568;45.286;9.900;2023-05-16T00:13:05;9.50;;;8.55;;
47804;SDS011;33568;45.286;9.900;2023-05-16T00:15:32;11.55;;;8.52;;
47804;SDS011;33568;45.286;9.900;2023-05-16T00:17:58;10.57;;;7.47;;
47804;SDS011;33568;45.286;9.900;2023-05-16T00:20:25;10.07;;;7.97;;
47804;SDS011;33568;45.286;9.900;2023-05-16T00:22:52;9.40;;;7.32;;
47804;SDS011;33568;45.286;9.900;2023-05-16T00:25:19;11.25;;;7.57;;
47804;SDS011;33568;45.286;9.900;2023-05-16T00:27:48;8.82;;;6.78;;
47804;SDS011;33568;45.286;9.900;2023-05-16T00:30:14;11.88;;;7.57;;
47804;SDS011;33568;45.286;9.900;2023-05-16T00:32:41;8.18;;;7.07;;
47804;SDS011;33568;45.286;9.900;2023-05-16T00:35:08;10.68;;;7.72;;
47804;SDS011;33568;45.286;9.900;2023-05-16T00:37:36;9.77;;;7.55;;
47804;SDS011;33568;45.286;9.900;2023-05-16T00:40:03;8.65;;;7.85;;
47804;SDS011;33568;45.286;9.900;2023-05-16T00:42:32;12.13;;;8.13;;
47804;SDS011;33568;45.286;9.900;2023-05-16T00:44:59;8.50;;;7.70;;
47804;SDS011;33568;45.286;9.900;2023-05-16T00:47:28;10.10;;;8.75;;
47804;SDS011;33568;45.286;9.900;2023-05-16T00:49:54;9.75;;;8.38;;
47804;SDS011;33568;45.286;9.900;2023-05-16T00:52:21;11.23;;;8.25;;
47804;SDS011;33568;45.286;9.900;2023-05-16T00:54:48;8.27;;;7.05;;
47804;SDS011;33568;45.286;9.900;2023-05-16T00:57:16;11.57;;;7.78;;
47804;SDS011;33568;45.286;9.900;2023-05-16T00:59:43;13.05;;;7.05;;
47804;SDS011;33568;45.286;9.900;2023-05-16T01:02:11;7.43;;;6.63;;
47804;SDS011;33568;45.286;9.900;2023-05-16T01:04:38;7.90;;;6.38;;
47804;SDS011;33568;45.286;9.900;2023-05-16T01:07:05;9.13;;;6.60;;
47804;SDS011;33568;45.286;9.900;2023-05-16T01:09:33;6.63;;;5.95;;
47804;SDS011;33568;45.286;9.900;2023-05-16T01:15:05;9.82;;;6.32;;
47804;SDS011;33568;45.286;9.900;2023-05-16T01:20:42;7.20;;;6.38;;
47804;SDS011;33568;45.286;9.900;2023-05-16T01:23:16;8.73;;;5.82;;
47804;SDS011;33568;45.286;9.900;2023-05-16T01:26:17;7.25;;;5.68;;
47804;SDS011;33568;45.286;9.900;2023-05-16T01:28:47;7.72;;;5.13;;
47804;SDS011;33568;45.286;9.900;2023-05-16T01:31:18;6.10;;;5.32;;
47804;SDS011;33568;45.286;9.900;2023-05-16T01:33:45;10.38;;;5.45;;
47804;SDS011;33568;45.286;9.900;2023-05-16T01:36:24;8.00;;;4.97;;
47804;SDS011;33568;45.286;9.900;2023-05-16T01:39:01;8.60;;;5.15;;
47804;SDS011;33568;45.286;9.900;2023-05-16T01:41:59;6.57;;;4.93;;
47804;SDS011;33568;45.286;9.900;2023-05-16T01:44:43;7.45;;;3.80;;
47804;SDS011;33568;45.286;9.900;2023-05-16T01:47:15;7.22;;;4.32;;
47804;SDS011;33568;45.286;9.900;2023-05-16T01:49:53;9.60;;;4.40;;
47804;SDS011;33568;45.286;9.900;2023-05-16T01:55:41;23.73;;;5.57;;
47804;SDS011;33568;45.286;9.900;2023-05-16T01:58:13;11.55;;;4.43;;
47804;SDS011;33568;45.286;9.900;2023-05-16T02:00:41;7.88;;;4.30;;
47804;SDS011;33568;45.286;9.900;2023-05-16T02:03:08;9.13;;;4.75;;
47804;SDS011;33568;45.286;9.900;2023-05-16T02:08:01;9.63;;;4.47;;
47804;SDS011;33568;45.286;9.900;2023-05-16T02:10:28;4.97;;;4.30;;
47804;SDS011;33568;45.286;9.900;2023-05-16T02:12:55;9.82;;;4.60;;
47804;SDS011;33568;45.286;9.900;2023-05-16T02:15:22;9.43;;;4.47;;
47804;SDS011;33568;45.286;9.900;2023-05-16T02:17:48;6.45;;;4.15;;
47804;SDS011;33568;45.286;9.900;2023-05-16T02:20:15;6.45;;;4.75;;
47804;SDS011;33568;45.286;9.900;2023-05-16T02:22:41;7.05;;;3.92;;
47804;SDS011;33568;45.286;9.900;2023-05-16T02:25:09;6.32;;;4.65;;
47804;SDS011;33568;45.286;9.900;2023-05-16T02:27:35;7.50;;;3.72;;
47804;SDS011;33568;45.286;9.900;2023-05-16T02:32:30;5.93;;;3.80;;
47804;SDS011;33568;45.286;9.900;2023-05-16T02:34:57;13.15;;;4.10;;
47804;SDS011;33568;45.286;9.900;2023-05-16T02:39:50;5.30;;;3.13;;
47804;SDS011;33568;45.286;9.900;2023-05-16T02:42:17;6.70;;;2.90;;
47804;SDS011;33568;45.286;9.900;2023-05-16T02:44:43;4.63;;;3.42;;
47804;SDS011;33568;45.286;9.900;2023-05-16T02:47:10;4.43;;;2.95;;
47804;SDS011;33568;45.286;9.900;2023-05-16T02:52:03;3.50;;;2.63;;
47804;SDS011;33568;45.286;9.900;2023-05-16T02:54:30;3.95;;;2.83;;
47804;SDS011;33568;45.286;9.900;2023-05-16T02:56:56;7.50;;;2.72;;
47804;SDS011;33568;45.286;9.900;2023-05-16T03:01:49;7.20;;;2.92;;
47804;SDS011;33568;45.286;9.900;2023-05-16T03:04:16;4.65;;;3.17;;
47804;SDS011;33568;45.286;9.900;2023-05-16T03:06:42;8.25;;;3.25;;
47804;SDS011;33568;45.286;9.900;2023-05-16T03:09:09;6.78;;;3.00;;
47804;SDS011;33568;45.286;9.900;2023-05-16T03:11:36;6.10;;;2.78;;
47804;SDS011;33568;45.286;9.900;2023-05-16T03:14:02;7.88;;;2.80;;
47804;SDS011;33568;45.286;9.900;2023-05-16T03:16:29;8.43;;;2.97;;
47804;SDS011;33568;45.286;9.900;2023-05-16T03:18:55;4.57;;;2.92;;
47804;SDS011;33568;45.286;9.900;2023-05-16T03:23:48;8.15;;;3.17;;
47804;SDS011;33568;45.286;9.900;2023-05-16T03:28:40;4.38;;;2.63;;
47804;SDS011;33568;45.286;9.900;2023-05-16T03:31:07;6.80;;;3.35;;
47804;SDS011;33568;45.286;9.900;2023-05-16T03:36:00;14.13;;;3.00;;
47804;SDS011;33568;45.286;9.900;2023-05-16T03:38:27;6.63;;;3.20;;
47804;SDS011;33568;45.286;9.900;2023-05-16T03:40:53;6.07;;;3.17;;
47804;SDS011;33568;45.286;9.900;2023-05-16T03:43:20;5.35;;;3.05;;
47804;SDS011;33568;45.286;9.900;2023-05-16T03:48:13;3.47;;;2.80;;
47804;SDS011;33568;45.286;9.900;2023-05-16T03:50:39;6.57;;;2.80;;
47804;SDS011;33568;45.286;9.900;2023-05-16T03:53:07;3.03;;;2.72;;
47804;SDS011;33568;45.286;9.900;2023-05-16T03:55:34;6.80;;;3.30;;
47804;SDS011;33568;45.286;9.900;2023-05-16T03:58:01;6.03;;;2.95;;
47804;SDS011;33568;45.286;9.900;2023-05-16T04:02:54;7.05;;;2.90;;
47804;SDS011;33568;45.286;9.900;2023-05-16T04:05:20;4.38;;;2.75;;
47804;SDS011;33568;45.286;9.900;2023-05-16T04:07:47;6.93;;;3.53;;
47804;SDS011;33568;45.286;9.900;2023-05-16T04:10:13;6.40;;;3.08;;
47804;SDS011;33568;45.286;9.900;2023-05-16T04:12:40;4.20;;;3.13;;
47804;SDS011;33568;45.286;9.900;2023-05-16T04:17:33;5.45;;;2.55;;
47804;SDS011;33568;45.286;9.900;2023-05-16T04:19:59;5.40;;;2.75;;
47804;SDS011;33568;45.286;9.900;2023-05-16T04:22:26;4.03;;;2.50;;
47804;SDS011;33568;45.286;9.900;2023-05-16T04:27:18;7.95;;;3.05;;
47804;SDS011;33568;45.286;9.900;2023-05-16T04:29:45;3.80;;;2.88;;
47804;SDS011;33568;45.286;9.900;2023-05-16T04:32:12;6.80;;;2.90;;
47804;SDS011;33568;45.286;9.900;2023-05-16T04:34:38;3.42;;;2.55;;
47804;SDS011;33568;45.286;9.900;2023-05-16T04:37:06;8.80;;;2.75;;
47804;SDS011;33568;45.286;9.900;2023-05-16T04:39:33;3.40;;;2.58;;
47804;SDS011;33568;45.286;9.900;2023-05-16T04:42:00;4.45;;;2.78;;
47804;SDS011;33568;45.286;9.900;2023-05-16T04:44:28;3.97;;;3.10;;
47804;SDS011;33568;45.286;9.900;2023-05-16T04:46:54;5.68;;;3.10;;
47804;SDS011;33568;45.286;9.900;2023-05-16T04:49:21;8.85;;;2.80;;
47804;SDS011;33568;45.286;9.900;2023-05-16T04:51:48;3.70;;;2.60;;
47804;SDS011;33568;45.286;9.900;2023-05-16T04:54:15;3.72;;;2.70;;
47804;SDS011;33568;45.286;9.900;2023-05-16T04:56:41;9.15;;;3.08;;
47804;SDS011;33568;45.286;9.900;2023-05-16T05:01:34;6.35;;;2.45;;
47804;SDS011;33568;45.286;9.900;2023-05-16T05:04:01;3.58;;;2.88;;
47804;SDS011;33568;45.286;9.900;2023-05-16T05:08:53;8.05;;;3.10;;
47804;SDS011;33568;45.286;9.900;2023-05-16T05:11:20;8.32;;;3.47;;
47804;SDS011;33568;45.286;9.900;2023-05-16T05:13:48;5.22;;;3.55;;
47804;SDS011;33568;45.286;9.900;2023-05-16T05:18:40;7.47;;;3.90;;
47804;SDS011;33568;45.286;9.900;2023-05-16T05:23:33;4.45;;;3.33;;
47804;SDS011;33568;45.286;9.900;2023-05-16T05:28:26;6.07;;;3.58;;
47804;SDS011;33568;45.286;9.900;2023-05-16T05:30:53;9.00;;;3.28;;
47804;SDS011;33568;45.286;9.900;2023-05-16T05:33:24;6.63;;;3.40;;
47804;SDS011;33568;45.286;9.900;2023-05-16T05:35:52;4.65;;;3.47;;
47804;SDS011;33568;45.286;9.900;2023-05-16T05:38:19;7.32;;;3.25;;
47804;SDS011;33568;45.286;9.900;2023-05-16T05:40:45;3.83;;;3.28;;
47804;SDS011;33568;45.286;9.900;2023-05-16T05:45:39;6.07;;;3.80;;
47804;SDS011;33568;45.286;9.900;2023-05-16T05:48:08;5.63;;;3.55;;
47804;SDS011;33568;45.286;9.900;2023-05-16T05:50:36;8.82;;;3.92;;
47804;SDS011;33568;45.286;9.900;2023-05-16T05:53:02;9.70;;;4.20;;
47804;SDS011;33568;45.286;9.900;2023-05-16T05:55:29;8.48;;;4.65;;
47804;SDS011;33568;45.286;9.900;2023-05-16T05:57:57;4.82;;;4.15;;
47804;SDS011;33568;45.286;9.900;2023-05-16T06:00:25;6.93;;;4.60;;
47804;SDS011;33568;45.286;9.900;2023-05-16T06:02:52;9.43;;;4.72;;
47804;SDS011;33568;45.286;9.900;2023-05-16T06:05:20;6.75;;;4.20;;
47804;SDS011;33568;45.286;9.900;2023-05-16T06:07:46;8.13;;;4.82;;
47804;SDS011;33568;45.286;9.900;2023-05-16T06:12:39;5.88;;;5.28;;
47804;SDS011;33568;45.286;9.900;2023-05-16T06:15:06;6.10;;;5.47;;
47804;SDS011;33568;45.286;9.900;2023-05-16T06:17:33;6.60;;;5.90;;
47804;SDS011;33568;45.286;9.900;2023-05-16T06:20:00;6.93;;;5.75;;
47804;SDS011;33568;45.286;9.900;2023-05-16T06:22:30;6.60;;;5.90;;
47804;SDS011;33568;45.286;9.900;2023-05-16T06:27:23;15.98;;;8.63;;
47804;SDS011;33568;45.286;9.900;2023-05-16T06:29:50;14.90;;;9.18;;
47804;SDS011;33568;45.286;9.900;2023-05-16T06:34:43;18.08;;;11.23;;
47804;SDS011;33568;45.286;9.900;2023-05-16T06:37:09;11.90;;;9.70;;
47804;SDS011;33568;45.286;9.900;2023-05-16T06:42:02;16.20;;;9.82;;
47804;SDS011;33568;45.286;9.900;2023-05-16T06:44:31;19.30;;;10.63;;
47804;SDS011;33568;45.286;9.900;2023-05-16T06:46:58;13.38;;;9.93;;
47804;SDS011;33568;45.286;9.900;2023-05-16T06:51:50;14.43;;;7.72;;
47804;SDS011;33568;45.286;9.900;2023-05-16T06:56:44;7.32;;;4.32;;
47804;SDS011;33568;45.286;9.900;2023-05-16T06:59:10;8.52;;;3.40;;
47804;SDS011;33568;45.286;9.900;2023-05-16T07:04:03;10.30;;;3.53;;
47804;SDS011;33568;45.286;9.900;2023-05-16T07:06:29;12.65;;;2.95;;
47804;SDS011;33568;45.286;9.900;2023-05-16T07:08:56;11.02;;;2.80;;
47804;SDS011;33568;45.286;9.900;2023-05-16T07:11:23;7.30;;;2.25;;
47804;SDS011;33568;45.286;9.900;2023-05-16T07:13:49;4.13;;;2.28;;
47804;SDS011;33568;45.286;9.900;2023-05-16T07:16:16;8.20;;;2.95;;
47804;SDS011;33568;45.286;9.900;2023-05-16T07:18:43;6.25;;;2.72;;
47804;SDS011;33568;45.286;9.900;2023-05-16T07:23:36;9.90;;;2.40;;
47804;SDS011;33568;45.286;9.900;2023-05-16T07:26:08;6.65;;;2.38;;
47804;SDS011;33568;45.286;9.900;2023-05-16T07:28:35;6.88;;;2.15;;
47804;SDS011;33568;45.286;9.900;2023-05-16T07:31:02;8.40;;;2.50;;
47804;SDS011;33568;45.286;9.900;2023-05-16T07:33:29;4.18;;;2.20;;
47804;SDS011;33568;45.286;9.900;2023-05-16T07:35:55;6.05;;;2.55;;
47804;SDS011;33568;45.286;9.900;2023-05-16T07:38:22;5.28;;;2.25;;
47804;SDS011;33568;45.286;9.900;2023-05-16T07:40:49;7.38;;;2.33;;
47804;SDS011;33568;45.286;9.900;2023-05-16T07:43:15;11.50;;;2.40;;
47804;SDS011;33568;45.286;9.900;2023-05-16T07:45:42;6.60;;;2.90;;
47804;SDS011;33568;45.286;9.900;2023-05-16T07:48:09;8.65;;;2.25;;
47804;SDS011;33568;45.286;9.900;2023-05-16T07:50:35;5.38;;;2.55;;
47804;SDS011;33568;45.286;9.900;2023-05-16T07:53:02;5.60;;;2.92;;
47804;SDS011;33568;45.286;9.900;2023-05-16T07:55:28;10.15;;;3.80;;
47804;SDS011;33568;45.286;9.900;2023-05-16T07:57:55;6.93;;;3.40;;
47804;SDS011;33568;45.286;9.900;2023-05-16T08:00:22;8.32;;;3.55;;
47804;SDS011;33568;45.286;9.900;2023-05-16T08:02:48;7.45;;;3.60;;
47804;SDS011;33568;45.286;9.900;2023-05-16T08:05:16;7.30;;;3.58;;
47804;SDS011;33568;45.286;9.900;2023-05-16T08:10:08;10.48;;;3.28;;
47804;SDS011;33568;45.286;9.900;2023-05-16T08:12:35;4.85;;;2.47;;
47804;SDS011;33568;45.286;9.900;2023-05-16T08:15:02;5.78;;;2.45;;
47804;SDS011;33568;45.286;9.900;2023-05-16T08:17:30;6.30;;;2.75;;
47804;SDS011;33568;45.286;9.900;2023-05-16T08:19:56;6.35;;;3.67;;
47804;SDS011;33568;45.286;9.900;2023-05-16T08:22:24;10.35;;;3.67;;
47804;SDS011;33568;45.286;9.900;2023-05-16T08:24:51;7.35;;;3.22;;
47804;SDS011;33568;45.286;9.900;2023-05-16T08:27:17;5.20;;;3.28;;
47804;SDS011;33568;45.286;9.900;2023-05-16T08:32:10;5.30;;;3.78;;
47804;SDS011;33568;45.286;9.900;2023-05-16T08:34:36;5.45;;;3.30;;
47804;SDS011;33568;45.286;9.900;2023-05-16T08:39:29;3.22;;;2.47;;
47804;SDS011;33568;45.286;9.900;2023-05-16T08:41:56;4.40;;;3.08;;
47804;SDS011;33568;45.286;9.900;2023-05-16T08:44:23;5.63;;;3.72;;
47804;SDS011;33568;45.286;9.900;2023-05-16T08:46:51;11.13;;;5.53;;
47804;SDS011;33568;45.286;9.900;2023-05-16T08:49:18;7.90;;;4.88;;
47804;SDS011;33568;45.286;9.900;2023-05-16T08:51:46;7.05;;;4.57;;
47804;SDS011;33568;45.286;9.900;2023-05-16T08:54:14;10.10;;;5.30;;
47804;SDS011;33568;45.286;9.900;2023-05-16T08:56:41;6.75;;;2.92;;
47804;SDS011;33568;45.286;9.900;2023-05-16T08:59:09;6.28;;;2.45;;
47804;SDS011;33568;45.286;9.900;2023-05-16T09:01:36;13.85;;;7.72;;
47804;SDS011;33568;45.286;9.900;2023-05-16T09:04:05;9.77;;;5.55;;
47804;SDS011;33568;45.286;9.900;2023-05-16T09:06:33;5.63;;;4.60;;
47804;SDS011;33568;45.286;9.900;2023-05-16T09:09:00;9.90;;;7.22;;
47804;SDS011;33568;45.286;9.900;2023-05-16T09:11:27;6.60;;;4.05;;
47804;SDS011;33568;45.286;9.900;2023-05-16T09:13:54;4.28;;;3.17;;
47804;SDS011;33568;45.286;9.900;2023-05-16T09:16:20;4.15;;;2.83;;
47804;SDS011;33568;45.286;9.900;2023-05-16T09:18:55;8.20;;;3.55;;
47804;SDS011;33568;45.286;9.900;2023-05-16T09:21:30;8.05;;;4.63;;
47804;SDS011;33568;45.286;9.900;2023-05-16T09:24:02;7.03;;;3.15;;
47804;SDS011;33568;45.286;9.900;2023-05-16T09:26:30;7.80;;;3.25;;
47804;SDS011;33568;45.286;9.900;2023-05-16T09:28:58;8.38;;;2.95;;
47804;SDS011;33568;45.286;9.900;2023-05-16T09:33:52;6.40;;;3.75;;
47804;SDS011;33568;45.286;9.900;2023-05-16T09:36:21;5.60;;;4.53;;
47804;SDS011;33568;45.286;9.900;2023-05-16T09:38:50;4.00;;;2.90;;
47804;SDS011;33568;45.286;9.900;2023-05-16T09:41:17;6.85;;;3.00;;
47804;SDS011;33568;45.286;9.900;2023-05-16T09:43:46;8.15;;;2.83;;
47804;SDS011;33568;45.286;9.900;2023-05-16T09:46:13;4.65;;;2.47;;
47804;SDS011;33568;45.286;9.900;2023-05-16T09:48:44;4.45;;;2.58;;
47804;SDS011;33568;45.286;9.900;2023-05-16T09:51:12;8.10;;;2.92;;
47804;SDS011;33568;45.286;9.900;2023-05-16T09:53:39;2.80;;;2.40;;
47804;SDS011;33568;45.286;9.900;2023-05-16T09:56:10;7.25;;;2.78;;
47804;SDS011;33568;45.286;9.900;2023-05-16T09:58:38;8.43;;;2.67;;
47804;SDS011;33568;45.286;9.900;2023-05-16T10:01:06;5.63;;;2.75;;
47804;SDS011;33568;45.286;9.900;2023-05-16T10:03:33;5.68;;;2.58;;
47804;SDS011;33568;45.286;9.900;2023-05-16T10:06:02;5.80;;;2.85;;
47804;SDS011;33568;45.286;9.900;2023-05-16T10:08:30;7.88;;;4.25;;
47804;SDS011;33568;45.286;9.900;2023-05-16T10:11:01;5.00;;;3.10;;
47804;SDS011;33568;45.286;9.900;2023-05-16T10:13:30;3.53;;;2.95;;
47804;SDS011;33568;45.286;9.900;2023-05-16T10:15:58;8.75;;;3.47;;
47804;SDS011;33568;45.286;9.900;2023-05-16T10:18:30;5.70;;;3.85;;
47804;SDS011;33568;45.286;9.900;2023-05-16T10:21:01;6.50;;;3.35;;
47804;SDS011;33568;45.286;9.900;2023-05-16T10:23:31;5.70;;;3.50;;
47804;SDS011;33568;45.286;9.900;2023-05-16T10:26:00;7.68;;;3.25;;
47804;SDS011;33568;45.286;9.900;2023-05-16T10:28:29;7.43;;;3.88;;
47804;SDS011;33568;45.286;9.900;2023-05-16T10:30:56;7.00;;;3.90;;
47804;SDS011;33568;45.286;9.900;2023-05-16T10:33:24;7.30;;;3.90;;
47804;SDS011;33568;45.286;9.900;2023-05-16T10:35:50;7.20;;;3.78;;
47804;SDS011;33568;45.286;9.900;2023-05-16T10:38:17;6.85;;;4.22;;
47804;SDS011;33568;45.286;9.900;2023-05-16T10:40:46;7.82;;;4.53;;
47804;SDS011;33568;45.286;9.900;2023-05-16T10:43:21;4.68;;;4.18;;
47804;SDS011;33568;45.286;9.900;2023-05-16T10:45:54;7.00;;;4.70;;
47804;SDS011;33568;45.286;9.900;2023-05-16T10:48:29;6.70;;;4.45;;
47804;SDS011;33568;45.286;9.900;2023-05-16T10:50:56;7.05;;;4.30;;
47804;SDS011;33568;45.286;9.900;2023-05-16T10:53:34;6.53;;;4.68;;
47804;SDS011;33568;45.286;9.900;2023-05-16T11:01:17;7.47;;;5.05;;
47804;SDS011;33568;45.286;9.900;2023-05-16T11:06:27;6.63;;;4.43;;
47804;SDS011;33568;45.286;9.900;2023-05-16T11:11:42;5.78;;;4.47;;
47804;SDS011;33568;45.286;9.900;2023-05-16T11:19:47;5.15;;;4.13;;
47804;SDS011;33568;45.286;9.900;2023-05-16T11:22:31;6.63;;;3.72;;
47804;SDS011;33568;45.286;9.900;2023-05-16T11:25:03;7.38;;;4.90;;
47804;SDS011;33568;45.286;9.900;2023-05-16T11:27:35;4.72;;;3.90;;
47804;SDS011;33568;45.286;9.900;2023-05-16T11:30:13;7.30;;;4.60;;
47804;SDS011;33568;45.286;9.900;2023-05-16T11:32:43;7.82;;;3.75;;
47804;SDS011;33568;45.286;9.900;2023-05-16T11:35:12;7.47;;;4.13;;
47804;SDS011;33568;45.286;9.900;2023-05-16T11:37:40;6.03;;;4.22;;
47804;SDS011;33568;45.286;9.900;2023-05-16T11:40:08;7.93;;;3.83;;
47804;SDS011;33568;45.286;9.900;2023-05-16T11:42:40;10.68;;;6.97;;
47804;SDS011;33568;45.286;9.900;2023-05-16T11:45:16;19.98;;;8.15;;
47804;SDS011;33568;45.286;9.900;2023-05-16T11:47:46;9.60;;;7.45;;
47804;SDS011;33568;45.286;9.900;2023-05-16T11:50:14;10.35;;;6.97;;
47804;SDS011;33568;45.286;9.900;2023-05-16T11:52:46;8.77;;;5.82;;
47804;SDS011;33568;45.286;9.900;2023-05-16T11:55:22;11.43;;;5.38;;
47804;SDS011;33568;45.286;9.900;2023-05-16T11:57:53;5.93;;;4.47;;
47804;SDS011;33568;45.286;9.900;2023-05-16T12:00:23;5.57;;;3.70;;
47804;SDS011;33568;45.286;9.900;2023-05-16T12:02:52;6.03;;;4.00;;
47804;SDS011;33568;45.286;9.900;2023-05-16T12:05:20;5.55;;;4.90;;
47804;SDS011;33568;45.286;9.900;2023-05-16T12:07:51;6.38;;;4.45;;
47804;SDS011;33568;45.286;9.900;2023-05-16T12:10:20;5.25;;;4.10;;
47804;SDS011;33568;45.286;9.900;2023-05-16T12:12:48;5.68;;;4.80;;
47804;SDS011;33568;45.286;9.900;2023-05-16T12:15:17;5.72;;;3.78;;
47804;SDS011;33568;45.286;9.900;2023-05-16T12:17:44;6.50;;;3.38;;
47804;SDS011;33568;45.286;9.900;2023-05-16T12:20:12;12.13;;;3.88;;
47804;SDS011;33568;45.286;9.900;2023-05-16T12:22:44;8.55;;;3.60;;
47804;SDS011;33568;45.286;9.900;2023-05-16T12:25:21;8.32;;;3.45;;
47804;SDS011;33568;45.286;9.900;2023-05-16T12:27:59;6.25;;;3.95;;
47804;SDS011;33568;45.286;9.900;2023-05-16T12:30:27;7.22;;;3.50;;
47804;SDS011;33568;45.286;9.900;2023-05-16T12:35:23;3.67;;;3.35;;
47804;SDS011;33568;45.286;9.900;2023-05-16T12:37:57;5.45;;;3.13;;
47804;SDS011;33568;45.286;9.900;2023-05-16T12:40:27;4.40;;;3.10;;
47804;SDS011;33568;45.286;9.900;2023-05-16T12:42:54;3.80;;;3.05;;
47804;SDS011;33568;45.286;9.900;2023-05-16T12:45:21;6.75;;;3.20;;
47804;SDS011;33568;45.286;9.900;2023-05-16T12:47:48;5.85;;;3.70;;
47804;SDS011;33568;45.286;9.900;2023-05-16T12:50:15;4.40;;;3.50;;
47804;SDS011;33568;45.286;9.900;2023-05-16T12:52:45;7.00;;;3.47;;
47804;SDS011;33568;45.286;9.900;2023-05-16T12:55:18;5.95;;;3.65;;
47804;SDS011;33568;45.286;9.900;2023-05-16T12:57:47;3.75;;;3.08;;
47804;SDS011;33568;45.286;9.900;2023-05-16T13:00:18;4.55;;;3.10;;
47804;SDS011;33568;45.286;9.900;2023-05-16T13:02:46;3.40;;;3.10;;
47804;SDS011;33568;45.286;9.900;2023-05-16T13:05:13;4.95;;;3.35;;
47804;SDS011;33568;45.286;9.900;2023-05-16T13:07:40;5.45;;;3.85;;
47804;SDS011;33568;45.286;9.900;2023-05-16T13:10:07;6.38;;;3.33;;
47804;SDS011;33568;45.286;9.900;2023-05-16T13:12:37;5.60;;;3.05;;
47804;SDS011;33568;45.286;9.900;2023-05-16T13:15:05;5.47;;;3.45;;
47804;SDS011;33568;45.286;9.900;2023-05-16T13:17:33;5.93;;;3.22;;
47804;SDS011;33568;45.286;9.900;2023-05-16T13:20:00;3.22;;;2.90;;
47804;SDS011;33568;45.286;9.900;2023-05-16T13:22:38;4.25;;;3.10;;
47804;SDS011;33568;45.286;9.900;2023-05-16T13:25:06;6.03;;;3.30;;
47804;SDS011;33568;45.286;9.900;2023-05-16T13:27:33;3.47;;;3.17;;
47804;SDS011;33568;45.286;9.900;2023-05-16T13:30:00;5.05;;;3.20;;
47804;SDS011;33568;45.286;9.900;2023-05-16T13:32:31;6.38;;;3.58;;
47804;SDS011;33568;45.286;9.900;2023-05-16T13:34:58;10.23;;;4.05;;
47804;SDS011;33568;45.286;9.900;2023-05-16T13:37:25;5.35;;;3.33;;
47804;SDS011;33568;45.286;9.900;2023-05-16T13:39:52;4.72;;;3.65;;
47804;SDS011;33568;45.286;9.900;2023-05-16T13:42:22;4.65;;;3.85;;
47804;SDS011;33568;45.286;9.900;2023-05-16T13:44:50;6.28;;;4.22;;
47804;SDS011;33568;45.286;9.900;2023-05-16T13:47:20;3.20;;;2.90;;
47804;SDS011;33568;45.286;9.900;2023-05-16T13:49:47;7.72;;;3.88;;
47804;SDS011;33568;45.286;9.900;2023-05-16T13:52:15;5.88;;;3.35;;
47804;SDS011;33568;45.286;9.900;2023-05-16T13:54:42;8.77;;;3.92;;
47804;SDS011;33568;45.286;9.900;2023-05-16T13:57:09;5.38;;;4.05;;
47804;SDS011;33568;45.286;9.900;2023-05-16T13:59:36;5.50;;;3.47;;
47804;SDS011;33568;45.286;9.900;2023-05-16T14:02:02;4.78;;;3.45;;
47804;SDS011;33568;45.286;9.900;2023-05-16T14:04:29;4.97;;;3.17;;
47804;SDS011;33568;45.286;9.900;2023-05-16T14:06:56;7.18;;;4.00;;
47804;SDS011;33568;45.286;9.900;2023-05-16T14:09:22;4.13;;;3.33;;
47804;SDS011;33568;45.286;9.900;2023-05-16T14:11:49;4.40;;;3.65;;
47804;SDS011;33568;45.286;9.900;2023-05-16T14:14:16;3.45;;;3.17;;
47804;SDS011;33568;45.286;9.900;2023-05-16T14:19:10;5.90;;;3.08;;
47804;SDS011;33568;45.286;9.900;2023-05-16T14:21:37;5.78;;;3.90;;
47804;SDS011;33568;45.286;9.900;2023-05-16T14:24:05;4.32;;;3.55;;
47804;SDS011;33568;45.286;9.900;2023-05-16T14:26:32;7.35;;;3.90;;
47804;SDS011;33568;45.286;9.900;2023-05-16T14:28:58;3.50;;;3.20;;
47804;SDS011;33568;45.286;9.900;2023-05-16T14:31:25;3.78;;;2.80;;
47804;SDS011;33568;45.286;9.900;2023-05-16T14:33:52;8.13;;;4.10;;
47804;SDS011;33568;45.286;9.900;2023-05-16T14:36:18;4.15;;;3.72;;
47804;SDS011;33568;45.286;9.900;2023-05-16T14:38:45;4.80;;;3.38;;
47804;SDS011;33568;45.286;9.900;2023-05-16T14:41:11;6.22;;;3.38;;
47804;SDS011;33568;45.286;9.900;2023-05-16T14:43:38;3.88;;;3.30;;
47804;SDS011;33568;45.286;9.900;2023-05-16T14:46:04;4.93;;;3.70;;
47804;SDS011;33568;45.286;9.900;2023-05-16T14:48:31;5.43;;;3.42;;
47804;SDS011;33568;45.286;9.900;2023-05-16T14:50:58;3.80;;;3.10;;
47804;SDS011;33568;45.286;9.900;2023-05-16T14:53:25;3.80;;;3.17;;
47804;SDS011;33568;45.286;9.900;2023-05-16T14:55:51;4.53;;;3.60;;
47804;SDS011;33568;45.286;9.900;2023-05-16T14:58:18;4.88;;;3.97;;
47804;SDS011;33568;45.286;9.900;2023-05-16T15:00:44;4.85;;;3.67;;
47804;SDS011;33568;45.286;9.900;2023-05-16T15:03:11;4.10;;;3.58;;
47804;SDS011;33568;45.286;9.900;2023-05-16T15:05:37;5.70;;;3.53;;
47804;SDS011;33568;45.286;9.900;2023-05-16T15:08:03;5.20;;;4.03;;
47804;SDS011;33568;45.286;9.900;2023-05-16T15:10:30;9.32;;;4.30;;
47804;SDS011;33568;45.286;9.900;2023-05-16T15:12:57;8.95;;;6.85;;
47804;SDS011;33568;45.286;9.900;2023-05-16T15:15:24;8.65;;;4.28;;
47804;SDS011;33568;45.286;9.900;2023-05-16T15:17:50;5.95;;;4.38;;
47804;SDS011;33568;45.286;9.900;2023-05-16T15:20:18;4.50;;;3.70;;
47804;SDS011;33568;45.286;9.900;2023-05-16T15:22:46;6.10;;;4.00;;
47804;SDS011;33568;45.286;9.900;2023-05-16T15:25:13;5.20;;;3.95;;
47804;SDS011;33568;45.286;9.900;2023-05-16T15:27:39;4.72;;;4.25;;
47804;SDS011;33568;45.286;9.900;2023-05-16T15:30:06;4.13;;;3.72;;
47804;SDS011;33568;45.286;9.900;2023-05-16T15:32:33;5.32;;;4.05;;
47804;SDS011;33568;45.286;9.900;2023-05-16T15:35:00;4.72;;;3.42;;
47804;SDS011;33568;45.286;9.900;2023-05-16T15:37:27;5.10;;;3.97;;
47804;SDS011;33568;45.286;9.900;2023-05-16T15:39:53;4.05;;;3.63;;
47804;SDS011;33568;45.286;9.900;2023-05-16T15:42:20;5.45;;;3.70;;
47804;SDS011;33568;45.286;9.900;2023-05-16T15:44:48;7.90;;;3.78;;
47804;SDS011;33568;45.286;9.900;2023-05-16T15:47:15;5.03;;;3.60;;
47804;SDS011;33568;45.286;9.900;2023-05-16T15:49:42;8.25;;;3.65;;
47804;SDS011;33568;45.286;9.900;2023-05-16T15:52:13;4.32;;;3.85;;
47804;SDS011;33568;45.286;9.900;2023-05-16T15:54:39;3.75;;;3.38;;
47804;SDS011;33568;45.286;9.900;2023-05-16T15:57:06;4.25;;;3.22;;
47804;SDS011;33568;45.286;9.900;2023-05-16T15:59:32;4.65;;;3.60;;
47804;SDS011;33568;45.286;9.900;2023-05-16T16:01:58;4.90;;;2.90;;
47804;SDS011;33568;45.286;9.900;2023-05-16T16:04:28;6.00;;;3.33;;
47804;SDS011;33568;45.286;9.900;2023-05-16T16:06:55;3.88;;;3.03;;
47804;SDS011;33568;45.286;9.900;2023-05-16T16:09:22;3.47;;;3.00;;
47804;SDS011;33568;45.286;9.900;2023-05-16T16:11:48;6.63;;;3.03;;
47804;SDS011;33568;45.286;9.900;2023-05-16T16:14:17;5.20;;;3.33;;
47804;SDS011;33568;45.286;9.900;2023-05-16T16:16:43;7.93;;;6.50;;
47804;SDS011;33568;45.286;9.900;2023-05-16T16:19:10;7.88;;;5.05;;
47804;SDS011;33568;45.286;9.900;2023-05-16T16:21:36;5.07;;;3.17;;
47804;SDS011;33568;45.286;9.900;2023-05-16T16:24:03;6.55;;;3.83;;
47804;SDS011;33568;45.286;9.900;2023-05-16T16:26:30;12.00;;;3.40;;
47804;SDS011;33568;45.286;9.900;2023-05-16T16:28:57;3.95;;;3.15;;
47804;SDS011;33568;45.286;9.900;2023-05-16T16:31:24;4.40;;;3.65;;
47804;SDS011;33568;45.286;9.900;2023-05-16T16:33:50;8.07;;;3.45;;